sensor_id;sensor_type;location;lat;lon;timestamp;P1;durP1;ratioP1;P2;durP2;ratioP2
43042;SDS011;28667;50.758;6.096;2022-08-23T00:01:46;2.67;;;1.75;;
43042;SDS011;28667;50.758;6.096;2022-08-23T00:04:19;1.85;;;1.73;;
43042;SDS011;28667;50.758;6.096;2022-08-23T00:06:48;2.58;;;1.92;;
43042;SDS011;28667;50.758;6.096;2022-08-23T00:09:17;3.40;;;1.88;;
43042;SDS011;28667;50.758;6.096;2022-08-23T00:11:46;2.40;;;1.80;;
43042;SDS011;28667;50.758;6.096;2022-08-23T00:14:40;4.30;;;1.80;;
43042;SDS011;28667;50.758;6.096;2022-08-23T00:17:09;3.85;;;1.75;;
43042;SDS011;28667;50.758;6.096;2022-08-23T00:19:36;1.95;;;1.70;;
43042;SDS011;28667;50.758;6.096;2022-08-23T00:22:04;3.67;;;1.85;;
43042;SDS011;28667;50.758;6.096;2022-08-23T00:24:31;3.55;;;1.60;;
43042;SDS011;28667;50.758;6.096;2022-08-23T00:26:59;1.60;;;1.50;;
43042;SDS011;28667;50.758;6.096;2022-08-23T00:29:29;2.42;;;1.52;;
43042;SDS011;28667;50.758;6.096;2022-08-23T00:32:00;3.17;;;2.25;;
43042;SDS011;28667;50.758;6.096;2022-08-23T00:34:27;2.88;;;1.60;;
43042;SDS011;28667;50.758;6.096;2022-08-23T00:36:54;2.13;;;1.85;;
43042;SDS011;28667;50.758;6.096;2022-08-23T00:39:23;3.83;;;1.75;;
43042;SDS011;28667;50.758;6.096;2022-08-23T00:41:50;5.43;;;1.80;;
43042;SDS011;28667;50.758;6.096;2022-08-23T00:44:21;3.72;;;2.35;;
43042;SDS011;28667;50.758;6.096;2022-08-23T00:47:10;2.83;;;1.90;;
43042;SDS011;28667;50.758;6.096;2022-08-23T00:55:33;3.45;;;1.73;;
43042;SDS011;28667;50.758;6.096;2022-08-23T00:58:01;3.60;;;1.88;;
43042;SDS011;28667;50.758;6.096;2022-08-23T01:00:27;3.05;;;1.95;;
43042;SDS011;28667;50.758;6.096;2022-08-23T01:02:54;2.30;;;1.67;;
43042;SDS011;28667;50.758;6.096;2022-08-23T01:05:22;2.53;;;1.95;;
43042;SDS011;28667;50.758;6.096;2022-08-23T01:07:56;2.38;;;1.70;;
43042;SDS011;28667;50.758;6.096;2022-08-23T01:10:29;3.65;;;2.08;;
43042;SDS011;28667;50.758;6.096;2022-08-23T01:13:00;2.58;;;1.98;;
43042;SDS011;28667;50.758;6.096;2022-08-23T01:15:35;3.50;;;2.00;;
43042;SDS011;28667;50.758;6.096;2022-08-23T01:18:12;2.83;;;2.00;;
43042;SDS011;28667;50.758;6.096;2022-08-23T01:20:45;2.40;;;2.20;;
43042;SDS011;28667;50.758;6.096;2022-08-23T01:26:07;4.22;;;1.92;;
43042;SDS011;28667;50.758;6.096;2022-08-23T01:28:37;8.07;;;2.50;;
43042;SDS011;28667;50.758;6.096;2022-08-23T01:31:05;3.30;;;2.70;;
43042;SDS011;28667;50.758;6.096;2022-08-23T01:33:33;3.47;;;2.05;;
43042;SDS011;28667;50.758;6.096;2022-08-23T01:36:01;3.20;;;2.13;;
43042;SDS011;28667;50.758;6.096;2022-08-23T01:38:29;3.65;;;2.25;;
43042;SDS011;28667;50.758;6.096;2022-08-23T01:40:55;2.42;;;1.80;;
43042;SDS011;28667;50.758;6.096;2022-08-23T01:43:21;2.13;;;1.90;;
43042;SDS011;28667;50.758;6.096;2022-08-23T01:45:51;3.08;;;1.67;;
43042;SDS011;28667;50.758;6.096;2022-08-23T01:48:19;4.32;;;1.90;;
43042;SDS011;28667;50.758;6.096;2022-08-23T01:50:46;2.75;;;1.70;;
43042;SDS011;28667;50.758;6.096;2022-08-23T01:53:12;3.55;;;2.00;;
43042;SDS011;28667;50.758;6.096;2022-08-23T01:55:44;5.78;;;2.10;;
43042;SDS011;28667;50.758;6.096;2022-08-23T01:58:10;5.28;;;2.53;;
43042;SDS011;28667;50.758;6.096;2022-08-23T02:00:39;3.85;;;1.98;;
43042;SDS011;28667;50.758;6.096;2022-08-23T02:03:07;2.88;;;1.98;;
43042;SDS011;28667;50.758;6.096;2022-08-23T02:05:35;3.50;;;2.50;;
43042;SDS011;28667;50.758;6.096;2022-08-23T02:08:06;3.17;;;1.80;;
43042;SDS011;28667;50.758;6.096;2022-08-23T02:10:53;3.97;;;2.60;;
43042;SDS011;28667;50.758;6.096;2022-08-23T02:13:20;1.50;;;1.40;;
43042;SDS011;28667;50.758;6.096;2022-08-23T02:15:47;5.05;;;1.98;;
43042;SDS011;28667;50.758;6.096;2022-08-23T02:18:16;2.50;;;1.70;;
43042;SDS011;28667;50.758;6.096;2022-08-23T02:20:45;3.17;;;2.00;;
43042;SDS011;28667;50.758;6.096;2022-08-23T02:23:14;2.40;;;1.40;;
43042;SDS011;28667;50.758;6.096;2022-08-23T02:25:41;1.83;;;1.73;;
43042;SDS011;28667;50.758;6.096;2022-08-23T02:28:09;2.83;;;1.80;;
43042;SDS011;28667;50.758;6.096;2022-08-23T02:30:36;3.38;;;1.83;;
43042;SDS011;28667;50.758;6.096;2022-08-23T02:33:03;1.65;;;1.33;;
43042;SDS011;28667;50.758;6.096;2022-08-23T02:35:29;7.40;;;2.45;;
43042;SDS011;28667;50.758;6.096;2022-08-23T02:38:01;2.13;;;1.80;;
43042;SDS011;28667;50.758;6.096;2022-08-23T02:40:31;3.35;;;1.90;;
43042;SDS011;28667;50.758;6.096;2022-08-23T02:42:57;4.70;;;2.13;;
43042;SDS011;28667;50.758;6.096;2022-08-23T02:45:27;2.15;;;1.80;;
43042;SDS011;28667;50.758;6.096;2022-08-23T02:47:53;3.20;;;1.70;;
43042;SDS011;28667;50.758;6.096;2022-08-23T02:50:24;3.17;;;1.95;;
43042;SDS011;28667;50.758;6.096;2022-08-23T02:52:52;2.17;;;1.67;;
43042;SDS011;28667;50.758;6.096;2022-08-23T02:55:20;3.17;;;1.88;;
43042;SDS011;28667;50.758;6.096;2022-08-23T02:57:46;2.00;;;1.70;;
43042;SDS011;28667;50.758;6.096;2022-08-23T03:00:12;2.65;;;1.52;;
43042;SDS011;28667;50.758;6.096;2022-08-23T03:02:40;2.65;;;2.10;;
43042;SDS011;28667;50.758;6.096;2022-08-23T03:05:07;1.90;;;1.75;;
43042;SDS011;28667;50.758;6.096;2022-08-23T03:07:34;3.80;;;1.92;;
43042;SDS011;28667;50.758;6.096;2022-08-23T03:10:02;2.83;;;1.83;;
43042;SDS011;28667;50.758;6.096;2022-08-23T03:12:32;2.97;;;2.38;;
43042;SDS011;28667;50.758;6.096;2022-08-23T03:14:58;2.08;;;1.90;;
43042;SDS011;28667;50.758;6.096;2022-08-23T03:17:24;4.22;;;2.40;;
43042;SDS011;28667;50.758;6.096;2022-08-23T03:19:51;2.63;;;1.80;;
43042;SDS011;28667;50.758;6.096;2022-08-23T03:22:18;2.22;;;1.88;;
43042;SDS011;28667;50.758;6.096;2022-08-23T03:24:45;1.67;;;1.58;;
43042;SDS011;28667;50.758;6.096;2022-08-23T03:27:12;2.80;;;1.80;;
43042;SDS011;28667;50.758;6.096;2022-08-23T03:29:39;3.20;;;1.40;;
43042;SDS011;28667;50.758;6.096;2022-08-23T03:32:06;1.25;;;1.15;;
43042;SDS011;28667;50.758;6.096;2022-08-23T03:34:35;2.67;;;1.58;;
43042;SDS011;28667;50.758;6.096;2022-08-23T03:37:01;1.42;;;1.33;;
43042;SDS011;28667;50.758;6.096;2022-08-23T03:39:28;1.70;;;1.30;;
43042;SDS011;28667;50.758;6.096;2022-08-23T03:41:56;2.67;;;1.83;;
43042;SDS011;28667;50.758;6.096;2022-08-23T03:44:25;1.83;;;1.45;;
43042;SDS011;28667;50.758;6.096;2022-08-23T03:46:51;4.50;;;1.33;;
43042;SDS011;28667;50.758;6.096;2022-08-23T03:49:18;1.73;;;1.23;;
43042;SDS011;28667;50.758;6.096;2022-08-23T03:51:52;2.17;;;1.70;;
43042;SDS011;28667;50.758;6.096;2022-08-23T03:54:19;1.35;;;1.15;;
43042;SDS011;28667;50.758;6.096;2022-08-23T03:57:00;2.15;;;1.30;;
43042;SDS011;28667;50.758;6.096;2022-08-23T03:59:33;1.00;;;0.88;;
43042;SDS011;28667;50.758;6.096;2022-08-23T04:02:03;2.65;;;1.27;;
43042;SDS011;28667;50.758;6.096;2022-08-23T04:04:30;1.65;;;1.08;;
43042;SDS011;28667;50.758;6.096;2022-08-23T04:07:21;1.15;;;1.05;;
43042;SDS011;28667;50.758;6.096;2022-08-23T04:09:52;2.67;;;0.88;;
43042;SDS011;28667;50.758;6.096;2022-08-23T04:12:18;1.33;;;1.13;;
43042;SDS011;28667;50.758;6.096;2022-08-23T04:14:45;1.33;;;1.02;;
43042;SDS011;28667;50.758;6.096;2022-08-23T04:17:12;1.30;;;1.20;;
43042;SDS011;28667;50.758;6.096;2022-08-23T04:19:39;2.50;;;1.17;;
43042;SDS011;28667;50.758;6.096;2022-08-23T04:22:10;1.60;;;1.08;;
43042;SDS011;28667;50.758;6.096;2022-08-23T04:24:39;4.20;;;1.10;;
43042;SDS011;28667;50.758;6.096;2022-08-23T04:27:07;1.10;;;1.00;;
43042;SDS011;28667;50.758;6.096;2022-08-23T04:29:33;3.08;;;1.02;;
43042;SDS011;28667;50.758;6.096;2022-08-23T04:32:01;3.00;;;1.50;;
43042;SDS011;28667;50.758;6.096;2022-08-23T04:34:28;1.20;;;0.90;;
43042;SDS011;28667;50.758;6.096;2022-08-23T04:36:54;3.38;;;1.40;;
43042;SDS011;28667;50.758;6.096;2022-08-23T04:39:20;1.30;;;1.20;;
43042;SDS011;28667;50.758;6.096;2022-08-23T04:41:47;2.28;;;1.10;;
43042;SDS011;28667;50.758;6.096;2022-08-23T04:44:31;7.20;;;1.85;;
43042;SDS011;28667;50.758;6.096;2022-08-23T04:47:00;2.75;;;1.20;;
43042;SDS011;28667;50.758;6.096;2022-08-23T04:49:27;0.88;;;0.82;;
43042;SDS011;28667;50.758;6.096;2022-08-23T04:51:53;1.38;;;1.15;;
43042;SDS011;28667;50.758;6.096;2022-08-23T04:54:21;1.10;;;1.00;;
43042;SDS011;28667;50.758;6.096;2022-08-23T04:57:09;2.60;;;1.10;;
43042;SDS011;28667;50.758;6.096;2022-08-23T04:59:38;2.17;;;1.30;;
43042;SDS011;28667;50.758;6.096;2022-08-23T05:02:04;1.67;;;1.10;;
43042;SDS011;28667;50.758;6.096;2022-08-23T05:04:30;2.97;;;1.33;;
43042;SDS011;28667;50.758;6.096;2022-08-23T05:06:56;2.65;;;1.10;;
43042;SDS011;28667;50.758;6.096;2022-08-23T05:09:24;1.58;;;1.10;;
43042;SDS011;28667;50.758;6.096;2022-08-23T05:11:51;1.15;;;1.05;;
43042;SDS011;28667;50.758;6.096;2022-08-23T05:14:18;1.00;;;0.85;;
43042;SDS011;28667;50.758;6.096;2022-08-23T05:16:44;1.05;;;0.88;;
43042;SDS011;28667;50.758;6.096;2022-08-23T05:19:11;2.22;;;1.33;;
43042;SDS011;28667;50.758;6.096;2022-08-23T05:21:45;3.67;;;1.73;;
43042;SDS011;28667;50.758;6.096;2022-08-23T05:24:11;1.92;;;1.02;;
43042;SDS011;28667;50.758;6.096;2022-08-23T05:26:38;2.75;;;1.20;;
43042;SDS011;28667;50.758;6.096;2022-08-23T05:29:07;2.88;;;1.30;;
43042;SDS011;28667;50.758;6.096;2022-08-23T05:31:39;1.58;;;1.20;;
43042;SDS011;28667;50.758;6.096;2022-08-23T05:34:05;0.80;;;0.80;;
43042;SDS011;28667;50.758;6.096;2022-08-23T05:36:40;1.42;;;1.10;;
43042;SDS011;28667;50.758;6.096;2022-08-23T05:39:08;3.60;;;1.77;;
43042;SDS011;28667;50.758;6.096;2022-08-23T05:41:37;1.40;;;1.10;;
43042;SDS011;28667;50.758;6.096;2022-08-23T05:44:09;2.70;;;1.52;;
43042;SDS011;28667;50.758;6.096;2022-08-23T05:46:36;2.67;;;1.27;;
43042;SDS011;28667;50.758;6.096;2022-08-23T05:49:30;3.40;;;1.17;;
43042;SDS011;28667;50.758;6.096;2022-08-23T05:51:58;4.50;;;1.10;;
43042;SDS011;28667;50.758;6.096;2022-08-23T05:54:28;1.48;;;0.98;;
43042;SDS011;28667;50.758;6.096;2022-08-23T05:57:16;2.38;;;1.27;;
43042;SDS011;28667;50.758;6.096;2022-08-23T05:59:42;1.67;;;0.95;;
43042;SDS011;28667;50.758;6.096;2022-08-23T06:02:09;1.85;;;1.20;;
43042;SDS011;28667;50.758;6.096;2022-08-23T06:04:35;2.88;;;1.08;;
43042;SDS011;28667;50.758;6.096;2022-08-23T06:07:02;1.80;;;1.38;;
43042;SDS011;28667;50.758;6.096;2022-08-23T06:09:31;2.53;;;1.23;;
43042;SDS011;28667;50.758;6.096;2022-08-23T06:11:57;1.75;;;1.15;;
43042;SDS011;28667;50.758;6.096;2022-08-23T06:14:24;1.77;;;0.93;;
43042;SDS011;28667;50.758;6.096;2022-08-23T06:16:50;2.83;;;1.10;;
43042;SDS011;28667;50.758;6.096;2022-08-23T06:19:21;1.40;;;1.10;;
43042;SDS011;28667;50.758;6.096;2022-08-23T06:21:48;1.08;;;0.80;;
43042;SDS011;28667;50.758;6.096;2022-08-23T06:24:23;3.90;;;1.13;;
43042;SDS011;28667;50.758;6.096;2022-08-23T06:26:59;3.88;;;1.48;;
43042;SDS011;28667;50.758;6.096;2022-08-23T06:29:25;3.40;;;1.13;;
43042;SDS011;28667;50.758;6.096;2022-08-23T06:32:11;1.77;;;0.93;;
43042;SDS011;28667;50.758;6.096;2022-08-23T06:34:47;2.17;;;0.82;;
43042;SDS011;28667;50.758;6.096;2022-08-23T06:37:36;3.47;;;1.33;;
43042;SDS011;28667;50.758;6.096;2022-08-23T06:40:06;2.85;;;2.40;;
43042;SDS011;28667;50.758;6.096;2022-08-23T06:42:51;4.95;;;1.10;;
43042;SDS011;28667;50.758;6.096;2022-08-23T06:45:24;2.78;;;1.10;;
43042;SDS011;28667;50.758;6.096;2022-08-23T06:47:53;2.92;;;1.10;;
43042;SDS011;28667;50.758;6.096;2022-08-23T06:50:20;2.47;;;0.90;;
43042;SDS011;28667;50.758;6.096;2022-08-23T06:53:06;2.72;;;0.88;;
43042;SDS011;28667;50.758;6.096;2022-08-23T06:55:50;2.80;;;1.02;;
43042;SDS011;28667;50.758;6.096;2022-08-23T06:58:23;1.92;;;1.10;;
43042;SDS011;28667;50.758;6.096;2022-08-23T07:01:11;2.30;;;1.20;;
43042;SDS011;28667;50.758;6.096;2022-08-23T07:04:07;1.20;;;1.10;;
43042;SDS011;28667;50.758;6.096;2022-08-23T07:07:00;2.60;;;1.00;;
43042;SDS011;28667;50.758;6.096;2022-08-23T07:09:27;1.65;;;1.30;;
43042;SDS011;28667;50.758;6.096;2022-08-23T07:11:58;1.85;;;1.00;;
43042;SDS011;28667;50.758;6.096;2022-08-23T07:14:25;1.10;;;1.00;;
43042;SDS011;28667;50.758;6.096;2022-08-23T07:16:57;1.88;;;1.00;;
43042;SDS011;28667;50.758;6.096;2022-08-23T07:19:27;1.95;;;0.82;;
43042;SDS011;28667;50.758;6.096;2022-08-23T07:21:54;2.28;;;1.25;;
43042;SDS011;28667;50.758;6.096;2022-08-23T07:24:21;8.25;;;1.48;;
43042;SDS011;28667;50.758;6.096;2022-08-23T07:26:50;2.90;;;1.10;;
43042;SDS011;28667;50.758;6.096;2022-08-23T07:29:18;3.78;;;1.38;;
43042;SDS011;28667;50.758;6.096;2022-08-23T07:31:47;4.45;;;1.45;;
43042;SDS011;28667;50.758;6.096;2022-08-23T07:34:19;3.15;;;1.63;;
43042;SDS011;28667;50.758;6.096;2022-08-23T07:36:46;1.67;;;1.27;;
43042;SDS011;28667;50.758;6.096;2022-08-23T07:39:14;4.13;;;1.30;;
43042;SDS011;28667;50.758;6.096;2022-08-23T07:41:41;2.60;;;0.93;;
43042;SDS011;28667;50.758;6.096;2022-08-23T07:44:09;1.38;;;1.27;;
43042;SDS011;28667;50.758;6.096;2022-08-23T07:46:38;3.15;;;1.00;;
43042;SDS011;28667;50.758;6.096;2022-08-23T07:49:08;2.25;;;1.00;;
43042;SDS011;28667;50.758;6.096;2022-08-23T07:51:40;3.40;;;1.23;;
43042;SDS011;28667;50.758;6.096;2022-08-23T07:54:11;3.97;;;1.25;;
43042;SDS011;28667;50.758;6.096;2022-08-23T07:56:50;2.47;;;0.98;;
43042;SDS011;28667;50.758;6.096;2022-08-23T07:59:28;2.25;;;1.15;;
43042;SDS011;28667;50.758;6.096;2022-08-23T08:02:25;3.70;;;1.23;;
43042;SDS011;28667;50.758;6.096;2022-08-23T08:04:52;2.13;;;0.80;;
43042;SDS011;28667;50.758;6.096;2022-08-23T08:07:18;1.45;;;1.35;;
43042;SDS011;28667;50.758;6.096;2022-08-23T08:09:51;3.05;;;0.90;;
43042;SDS011;28667;50.758;6.096;2022-08-23T08:12:18;1.40;;;1.10;;
43042;SDS011;28667;50.758;6.096;2022-08-23T08:14:46;2.28;;;1.60;;
43042;SDS011;28667;50.758;6.096;2022-08-23T08:17:14;2.72;;;1.42;;
43042;SDS011;28667;50.758;6.096;2022-08-23T08:20:05;2.25;;;1.08;;
43042;SDS011;28667;50.758;6.096;2022-08-23T08:22:52;3.13;;;1.10;;
43042;SDS011;28667;50.758;6.096;2022-08-23T08:25:22;2.80;;;1.10;;
43042;SDS011;28667;50.758;6.096;2022-08-23T08:27:50;2.22;;;0.90;;
43042;SDS011;28667;50.758;6.096;2022-08-23T08:30:17;5.22;;;1.40;;
43042;SDS011;28667;50.758;6.096;2022-08-23T08:32:43;4.63;;;2.58;;
43042;SDS011;28667;50.758;6.096;2022-08-23T08:35:09;2.72;;;1.27;;
43042;SDS011;28667;50.758;6.096;2022-08-23T08:37:36;5.47;;;1.20;;
43042;SDS011;28667;50.758;6.096;2022-08-23T08:40:04;1.58;;;1.33;;
43042;SDS011;28667;50.758;6.096;2022-08-23T08:45:11;2.42;;;1.13;;
43042;SDS011;28667;50.758;6.096;2022-08-23T08:48:28;2.70;;;1.25;;
43042;SDS011;28667;50.758;6.096;2022-08-23T08:50:56;9.23;;;1.33;;
43042;SDS011;28667;50.758;6.096;2022-08-23T08:53:33;2.47;;;0.95;;
43042;SDS011;28667;50.758;6.096;2022-08-23T08:56:06;2.40;;;1.23;;
43042;SDS011;28667;50.758;6.096;2022-08-23T08:58:52;0.93;;;0.82;;
43042;SDS011;28667;50.758;6.096;2022-08-23T09:01:22;1.77;;;0.98;;
43042;SDS011;28667;50.758;6.096;2022-08-23T09:03:51;2.35;;;1.27;;
43042;SDS011;28667;50.758;6.096;2022-08-23T09:06:22;2.88;;;0.80;;
43042;SDS011;28667;50.758;6.096;2022-08-23T09:19:49;1.63;;;1.15;;
43042;SDS011;28667;50.758;6.096;2022-08-23T09:22:20;1.27;;;1.00;;
43042;SDS011;28667;50.758;6.096;2022-08-23T09:24:58;3.83;;;1.10;;
43042;SDS011;28667;50.758;6.096;2022-08-23T09:27:29;3.28;;;1.58;;
43042;SDS011;28667;50.758;6.096;2022-08-23T09:29:57;4.10;;;1.05;;
43042;SDS011;28667;50.758;6.096;2022-08-23T09:32:30;1.98;;;1.20;;
43042;SDS011;28667;50.758;6.096;2022-08-23T09:35:15;3.33;;;1.23;;
43042;SDS011;28667;50.758;6.096;2022-08-23T09:37:58;3.47;;;1.00;;
43042;SDS011;28667;50.758;6.096;2022-08-23T09:40:44;2.03;;;0.93;;
43042;SDS011;28667;50.758;6.096;2022-08-23T09:43:18;5.45;;;1.48;;
43042;SDS011;28667;50.758;6.096;2022-08-23T09:48:31;6.00;;;1.17;;
43042;SDS011;28667;50.758;6.096;2022-08-23T09:51:02;2.03;;;0.98;;
43042;SDS011;28667;50.758;6.096;2022-08-23T09:53:44;4.93;;;0.80;;
43042;SDS011;28667;50.758;6.096;2022-08-23T09:56:15;3.10;;;1.00;;
43042;SDS011;28667;50.758;6.096;2022-08-23T09:58:49;2.33;;;0.90;;
43042;SDS011;28667;50.758;6.096;2022-08-23T10:01:28;1.65;;;0.93;;
43042;SDS011;28667;50.758;6.096;2022-08-23T10:04:09;1.58;;;1.17;;
43042;SDS011;28667;50.758;6.096;2022-08-23T10:06:36;2.42;;;0.90;;
43042;SDS011;28667;50.758;6.096;2022-08-23T10:09:05;3.25;;;0.85;;
43042;SDS011;28667;50.758;6.096;2022-08-23T10:11:38;1.15;;;0.80;;
43042;SDS011;28667;50.758;6.096;2022-08-23T10:14:13;2.58;;;0.68;;
43042;SDS011;28667;50.758;6.096;2022-08-23T10:16:53;2.65;;;1.08;;
43042;SDS011;28667;50.758;6.096;2022-08-23T10:22:20;3.05;;;1.00;;
43042;SDS011;28667;50.758;6.096;2022-08-23T10:34:11;2.75;;;1.08;;
43042;SDS011;28667;50.758;6.096;2022-08-23T10:39:28;3.45;;;0.98;;
43042;SDS011;28667;50.758;6.096;2022-08-23T10:45:12;1.63;;;0.70;;
43042;SDS011;28667;50.758;6.096;2022-08-23T10:47:49;2.55;;;1.00;;
43042;SDS011;28667;50.758;6.096;2022-08-23T10:50:18;1.27;;;0.75;;
43042;SDS011;28667;50.758;6.096;2022-08-23T10:52:49;1.58;;;0.80;;
43042;SDS011;28667;50.758;6.096;2022-08-23T10:55:24;3.42;;;1.17;;
43042;SDS011;28667;50.758;6.096;2022-08-23T10:58:11;2.17;;;1.05;;
43042;SDS011;28667;50.758;6.096;2022-08-23T11:00:49;1.73;;;1.45;;
43042;SDS011;28667;50.758;6.096;2022-08-23T11:08:55;1.23;;;0.90;;
43042;SDS011;28667;50.758;6.096;2022-08-23T11:16:56;2.22;;;1.10;;
43042;SDS011;28667;50.758;6.096;2022-08-23T11:19:45;1.58;;;0.82;;
43042;SDS011;28667;50.758;6.096;2022-08-23T11:24:55;0.80;;;0.80;;
43042;SDS011;28667;50.758;6.096;2022-08-23T11:27:37;0.70;;;0.60;;
43042;SDS011;28667;50.758;6.096;2022-08-23T11:35:47;0.68;;;0.50;;
43042;SDS011;28667;50.758;6.096;2022-08-23T11:41:58;2.67;;;1.10;;
43042;SDS011;28667;50.758;6.096;2022-08-23T11:44:20;0.85;;;0.50;;
43042;SDS011;28667;50.758;6.096;2022-08-23T11:49:52;1.33;;;0.77;;
43042;SDS011;28667;50.758;6.096;2022-08-23T12:00:19;2.03;;;0.68;;
43042;SDS011;28667;50.758;6.096;2022-08-23T12:03:05;2.08;;;0.70;;
43042;SDS011;28667;50.758;6.096;2022-08-23T12:19:00;1.25;;;0.50;;
43042;SDS011;28667;50.758;6.096;2022-08-23T12:21:47;2.08;;;0.73;;
43042;SDS011;28667;50.758;6.096;2022-08-23T12:38:06;1.75;;;0.70;;
43042;SDS011;28667;50.758;6.096;2022-08-23T12:40:38;1.00;;;0.70;;
43042;SDS011;28667;50.758;6.096;2022-08-23T12:43:07;4.13;;;0.68;;
43042;SDS011;28667;50.758;6.096;2022-08-23T12:45:46;0.70;;;0.60;;
43042;SDS011;28667;50.758;6.096;2022-08-23T12:48:16;0.85;;;0.47;;
43042;SDS011;28667;50.758;6.096;2022-08-23T12:50:51;1.00;;;0.40;;
43042;SDS011;28667;50.758;6.096;2022-08-23T12:53:30;1.95;;;0.55;;
43042;SDS011;28667;50.758;6.096;2022-08-23T12:56:21;1.55;;;0.57;;
43042;SDS011;28667;50.758;6.096;2022-08-23T12:58:54;1.38;;;0.50;;
43042;SDS011;28667;50.758;6.096;2022-08-23T13:01:28;1.10;;;0.60;;
43042;SDS011;28667;50.758;6.096;2022-08-23T13:03:58;1.15;;;0.57;;
43042;SDS011;28667;50.758;6.096;2022-08-23T13:06:39;0.70;;;0.50;;
43042;SDS011;28667;50.758;6.096;2022-08-23T13:09:21;0.85;;;0.60;;
43042;SDS011;28667;50.758;6.096;2022-08-23T13:11:56;0.80;;;0.43;;
43042;SDS011;28667;50.758;6.096;2022-08-23T13:14:34;1.20;;;0.47;;
43042;SDS011;28667;50.758;6.096;2022-08-23T13:20:17;1.27;;;0.60;;
43042;SDS011;28667;50.758;6.096;2022-08-23T13:22:57;2.22;;;0.47;;
43042;SDS011;28667;50.758;6.096;2022-08-23T13:25:36;2.38;;;0.50;;
43042;SDS011;28667;50.758;6.096;2022-08-23T13:28:06;1.38;;;0.50;;
43042;SDS011;28667;50.758;6.096;2022-08-23T13:31:05;1.48;;;0.47;;
43042;SDS011;28667;50.758;6.096;2022-08-23T13:33:33;0.75;;;0.52;;
43042;SDS011;28667;50.758;6.096;2022-08-23T13:36:12;1.75;;;0.50;;
43042;SDS011;28667;50.758;6.096;2022-08-23T13:38:41;1.60;;;0.40;;
43042;SDS011;28667;50.758;6.096;2022-08-23T13:41:09;0.82;;;0.52;;
43042;SDS011;28667;50.758;6.096;2022-08-23T13:43:50;1.35;;;0.63;;
43042;SDS011;28667;50.758;6.096;2022-08-23T13:46:18;1.02;;;0.43;;
43042;SDS011;28667;50.758;6.096;2022-08-23T13:48:50;2.05;;;0.77;;
43042;SDS011;28667;50.758;6.096;2022-08-23T13:51:24;0.40;;;0.40;;
43042;SDS011;28667;50.758;6.096;2022-08-23T13:53:54;2.17;;;0.60;;
43042;SDS011;28667;50.758;6.096;2022-08-23T13:56:21;0.40;;;0.40;;
43042;SDS011;28667;50.758;6.096;2022-08-23T13:58:54;0.93;;;0.50;;
43042;SDS011;28667;50.758;6.096;2022-08-23T14:01:23;1.05;;;0.65;;
43042;SDS011;28667;50.758;6.096;2022-08-23T14:03:50;1.52;;;0.60;;
43042;SDS011;28667;50.758;6.096;2022-08-23T14:06:16;1.60;;;0.70;;
43042;SDS011;28667;50.758;6.096;2022-08-23T14:08:43;0.73;;;0.50;;
43042;SDS011;28667;50.758;6.096;2022-08-23T14:11:10;0.40;;;0.40;;
43042;SDS011;28667;50.758;6.096;2022-08-23T14:13:41;4.03;;;0.70;;
43042;SDS011;28667;50.758;6.096;2022-08-23T14:16:10;0.38;;;0.38;;
43042;SDS011;28667;50.758;6.096;2022-08-23T14:18:42;1.20;;;0.60;;
43042;SDS011;28667;50.758;6.096;2022-08-23T14:21:08;0.90;;;0.63;;
43042;SDS011;28667;50.758;6.096;2022-08-23T14:23:34;3.38;;;1.02;;
43042;SDS011;28667;50.758;6.096;2022-08-23T14:26:00;2.30;;;0.50;;
43042;SDS011;28667;50.758;6.096;2022-08-23T14:28:27;0.50;;;0.50;;
43042;SDS011;28667;50.758;6.096;2022-08-23T14:30:55;0.43;;;0.40;;
43042;SDS011;28667;50.758;6.096;2022-08-23T14:33:21;0.88;;;0.80;;
43042;SDS011;28667;50.758;6.096;2022-08-23T14:35:48;0.47;;;0.30;;
43042;SDS011;28667;50.758;6.096;2022-08-23T14:38:14;3.63;;;0.57;;
43042;SDS011;28667;50.758;6.096;2022-08-23T14:40:42;1.65;;;0.60;;
43042;SDS011;28667;50.758;6.096;2022-08-23T14:43:17;0.40;;;0.40;;
43042;SDS011;28667;50.758;6.096;2022-08-23T14:45:44;1.42;;;0.40;;
43042;SDS011;28667;50.758;6.096;2022-08-23T14:48:11;1.13;;;0.55;;
43042;SDS011;28667;50.758;6.096;2022-08-23T14:50:37;0.55;;;0.50;;
43042;SDS011;28667;50.758;6.096;2022-08-23T14:53:05;4.53;;;1.95;;
43042;SDS011;28667;50.758;6.096;2022-08-23T14:55:31;1.20;;;0.55;;
43042;SDS011;28667;50.758;6.096;2022-08-23T14:57:58;0.70;;;0.50;;
43042;SDS011;28667;50.758;6.096;2022-08-23T15:00:25;1.05;;;0.80;;
43042;SDS011;28667;50.758;6.096;2022-08-23T15:02:52;0.50;;;0.30;;
43042;SDS011;28667;50.758;6.096;2022-08-23T15:05:19;1.13;;;0.70;;
43042;SDS011;28667;50.758;6.096;2022-08-23T15:07:45;0.40;;;0.40;;
43042;SDS011;28667;50.758;6.096;2022-08-23T15:10:13;0.40;;;0.40;;
43042;SDS011;28667;50.758;6.096;2022-08-23T15:12:39;0.82;;;0.60;;
43042;SDS011;28667;50.758;6.096;2022-08-23T15:15:07;1.58;;;0.70;;
43042;SDS011;28667;50.758;6.096;2022-08-23T15:17:43;1.23;;;0.52;;
43042;SDS011;28667;50.758;6.096;2022-08-23T15:20:20;2.97;;;0.65;;
43042;SDS011;28667;50.758;6.096;2022-08-23T15:22:48;1.00;;;0.45;;
43042;SDS011;28667;50.758;6.096;2022-08-23T15:25:15;1.45;;;0.70;;
43042;SDS011;28667;50.758;6.096;2022-08-23T15:27:42;0.60;;;0.50;;
43042;SDS011;28667;50.758;6.096;2022-08-23T15:30:14;0.77;;;0.60;;
43042;SDS011;28667;50.758;6.096;2022-08-23T15:32:41;0.50;;;0.40;;
43042;SDS011;28667;50.758;6.096;2022-08-23T15:35:07;0.82;;;0.70;;
43042;SDS011;28667;50.758;6.096;2022-08-23T15:37:34;2.42;;;0.60;;
43042;SDS011;28667;50.758;6.096;2022-08-23T15:40:02;0.50;;;0.45;;
43042;SDS011;28667;50.758;6.096;2022-08-23T15:42:30;0.93;;;0.60;;
43042;SDS011;28667;50.758;6.096;2022-08-23T15:44:57;1.08;;;0.60;;
43042;SDS011;28667;50.758;6.096;2022-08-23T15:47:25;1.63;;;0.60;;
43042;SDS011;28667;50.758;6.096;2022-08-23T15:49:56;0.65;;;0.38;;
43042;SDS011;28667;50.758;6.096;2022-08-23T15:52:24;2.05;;;0.40;;
43042;SDS011;28667;50.758;6.096;2022-08-23T15:54:52;1.00;;;0.50;;
43042;SDS011;28667;50.758;6.096;2022-08-23T15:57:20;1.38;;;0.40;;
43042;SDS011;28667;50.758;6.096;2022-08-23T15:59:50;2.13;;;0.40;;
43042;SDS011;28667;50.758;6.096;2022-08-23T16:02:16;0.30;;;0.30;;
43042;SDS011;28667;50.758;6.096;2022-08-23T16:04:42;1.60;;;0.60;;
43042;SDS011;28667;50.758;6.096;2022-08-23T16:07:09;2.15;;;0.80;;
43042;SDS011;28667;50.758;6.096;2022-08-23T16:09:38;0.88;;;0.60;;
43042;SDS011;28667;50.758;6.096;2022-08-23T16:12:05;1.35;;;0.70;;
43042;SDS011;28667;50.758;6.096;2022-08-23T16:14:33;1.40;;;0.50;;
43042;SDS011;28667;50.758;6.096;2022-08-23T16:17:00;1.65;;;0.60;;
43042;SDS011;28667;50.758;6.096;2022-08-23T16:19:28;0.50;;;0.50;;
43042;SDS011;28667;50.758;6.096;2022-08-23T16:21:54;1.52;;;0.50;;
43042;SDS011;28667;50.758;6.096;2022-08-23T16:24:21;0.63;;;0.35;;
43042;SDS011;28667;50.758;6.096;2022-08-23T16:26:48;2.22;;;0.88;;
43042;SDS011;28667;50.758;6.096;2022-08-23T16:29:18;0.85;;;0.70;;
43042;SDS011;28667;50.758;6.096;2022-08-23T16:31:45;0.93;;;0.77;;
43042;SDS011;28667;50.758;6.096;2022-08-23T16:34:13;1.98;;;0.47;;
43042;SDS011;28667;50.758;6.096;2022-08-23T16:36:41;1.50;;;0.40;;
43042;SDS011;28667;50.758;6.096;2022-08-23T16:39:10;0.88;;;0.50;;
43042;SDS011;28667;50.758;6.096;2022-08-23T16:41:36;1.63;;;0.47;;
43042;SDS011;28667;50.758;6.096;2022-08-23T16:44:03;0.55;;;0.52;;
43042;SDS011;28667;50.758;6.096;2022-08-23T16:46:29;1.30;;;0.50;;
43042;SDS011;28667;50.758;6.096;2022-08-23T16:48:56;1.98;;;0.50;;
43042;SDS011;28667;50.758;6.096;2022-08-23T16:51:22;0.68;;;0.65;;
43042;SDS011;28667;50.758;6.096;2022-08-23T16:53:48;1.02;;;0.40;;
43042;SDS011;28667;50.758;6.096;2022-08-23T16:56:15;0.30;;;0.30;;
43042;SDS011;28667;50.758;6.096;2022-08-23T16:58:42;1.05;;;0.32;;